createdAt,value
2023-02-15T00:00:09.336Z,12.38
2023-02-15T00:02:36.124Z,15.63
2023-02-15T00:05:02.933Z,12.77
2023-02-15T00:07:29.683Z,14.00
2023-02-15T00:09:56.369Z,16.05
2023-02-15T00:12:23.168Z,15.55
2023-02-15T00:14:49.934Z,14.32
2023-02-15T00:17:16.763Z,12.75
2023-02-15T00:19:43.487Z,14.05
2023-02-15T00:22:10.413Z,11.48
2023-02-15T00:24:37.112Z,11.55
2023-02-15T00:27:03.988Z,15.73
2023-02-15T00:29:30.862Z,13.80
2023-02-15T00:31:57.579Z,13.02
2023-02-15T00:34:27.886Z,18.15
2023-02-15T00:36:54.660Z,12.13
2023-02-15T00:39:22.604Z,13.27
2023-02-15T00:41:49.446Z,12.75
2023-02-15T00:44:16.633Z,13.40
2023-02-15T00:46:43.525Z,13.45
2023-02-15T00:49:11.024Z,21.17
2023-02-15T00:51:38.099Z,15.80
2023-02-15T00:54:04.852Z,17.65
2023-02-15T00:56:31.592Z,17.08
2023-02-15T00:58:58.406Z,13.13
2023-02-15T01:01:27.011Z,12.90
2023-02-15T01:03:54.379Z,15.70
2023-02-15T01:06:21.366Z,18.75
2023-02-15T01:08:48.358Z,13.15
2023-02-15T01:11:23.381Z,13.48
2023-02-15T01:13:56.841Z,18.38
2023-02-15T01:16:25.594Z,13.20
2023-02-15T01:18:53.151Z,22.08
2023-02-15T01:21:22.722Z,21.67
2023-02-15T01:23:50.164Z,17.55
2023-02-15T01:26:17.905Z,15.35
2023-02-15T01:28:45.156Z,22.75
2023-02-15T01:31:15.362Z,15.07
2023-02-15T01:33:42.792Z,22.60
2023-02-15T01:36:09.663Z,30.52
2023-02-15T01:38:37.089Z,25.08
2023-02-15T01:41:23.113Z,19.55
2023-02-15T01:44:03.800Z,21.33
2023-02-15T01:46:44.061Z,19.27
2023-02-15T01:49:20.724Z,18.80
2023-02-15T01:51:50.375Z,18.52
2023-02-15T01:54:30.923Z,21.58
2023-02-15T01:57:03.631Z,19.73
2023-02-15T01:59:32.790Z,30.58
2023-02-15T02:02:02.000Z,21.10
2023-02-15T02:04:48.399Z,20.45
2023-02-15T02:07:18.593Z,22.42
2023-02-15T02:09:46.387Z,18.60
2023-02-15T02:12:15.443Z,22.77
2023-02-15T02:14:43.325Z,23.35
2023-02-15T02:17:34.812Z,25.05
2023-02-15T02:20:18.979Z,19.13
2023-02-15T02:22:52.788Z,18.65
2023-02-15T02:25:53.154Z,24.35
2023-02-15T02:29:04.805Z,21.98
2023-02-15T02:31:46.557Z,24.17
2023-02-15T02:34:38.568Z,21.88
2023-02-15T02:37:24.709Z,18.13
2023-02-15T02:40:11.303Z,20.10
2023-02-15T02:42:44.204Z,18.90
2023-02-15T02:45:42.083Z,22.27
2023-02-15T02:48:23.943Z,20.20
2023-02-15T02:50:50.930Z,18.40
2023-02-15T02:53:19.569Z,14.75
2023-02-15T02:55:58.231Z,25.80
2023-02-15T02:58:28.564Z,21.38
2023-02-15T03:00:58.364Z,20.10
2023-02-15T03:03:28.984Z,20.48
2023-02-15T03:06:00.994Z,24.45
2023-02-15T03:08:37.033Z,26.55
2023-02-15T03:11:05.330Z,19.85
2023-02-15T03:13:33.154Z,23.35
2023-02-15T03:16:21.448Z,23.35
2023-02-15T03:18:58.950Z,22.58
2023-02-15T03:21:43.355Z,31.27
2023-02-15T03:24:24.123Z,27.05
2023-02-15T03:26:53.104Z,28.20
2023-02-15T03:29:23.566Z,21.95
2023-02-15T03:31:55.127Z,26.70
2023-02-15T03:34:22.022Z,22.13
2023-02-15T03:36:54.624Z,29.90
2023-02-15T03:39:42.067Z,23.58
2023-02-15T03:42:14.703Z,25.88
2023-02-15T03:45:05.111Z,20.50
2023-02-15T03:47:36.503Z,26.27
2023-02-15T03:50:26.848Z,25.47
2023-02-15T03:52:56.628Z,26.90
2023-02-15T03:55:23.820Z,23.85
2023-02-15T03:58:09.961Z,19.13
2023-02-15T04:01:00.524Z,21.13
2023-02-15T04:03:52.882Z,20.27
2023-02-15T04:06:19.761Z,23.58
2023-02-15T04:09:08.117Z,24.50
2023-02-15T04:11:34.964Z,24.27
2023-02-15T04:14:21.776Z,29.50
2023-02-15T04:16:48.612Z,19.42
2023-02-15T04:19:34.218Z,23.20
2023-02-15T04:22:19.689Z,19.80
2023-02-15T04:25:05.139Z,26.85
2023-02-15T04:27:31.929Z,23.88
2023-02-15T04:29:58.794Z,26.92
2023-02-15T04:32:25.550Z,18.90
2023-02-15T04:34:53.301Z,19.45
2023-02-15T04:37:20.253Z,28.33
2023-02-15T04:39:46.985Z,21.35
2023-02-15T04:42:13.859Z,17.40
2023-02-15T04:44:40.590Z,24.85
2023-02-15T04:47:07.353Z,18.02
2023-02-15T04:49:34.069Z,21.63
2023-02-15T04:52:00.789Z,18.02
2023-02-15T04:54:27.626Z,18.48
2023-02-15T04:56:54.460Z,22.42
2023-02-15T04:59:21.210Z,15.45
2023-02-15T05:01:47.975Z,18.65
2023-02-15T05:04:16.379Z,19.73
2023-02-15T05:06:43.235Z,18.08
2023-02-15T05:09:10.033Z,16.35
2023-02-15T05:11:36.797Z,21.15
2023-02-15T05:14:03.592Z,18.27
2023-02-15T05:16:30.429Z,11.23
2023-02-15T05:18:57.941Z,11.85
2023-02-15T05:21:24.728Z,9.73
2023-02-15T05:23:51.505Z,4.70
2023-02-15T05:26:51.056Z,4.80
2023-02-15T05:29:17.784Z,2.63
2023-02-15T05:31:48.385Z,5.03
2023-02-15T05:34:15.298Z,2.28
2023-02-15T05:36:42.032Z,2.15
2023-02-15T05:39:09.522Z,2.22
2023-02-15T05:41:36.267Z,3.30
2023-02-15T05:44:03.017Z,1.00
2023-02-15T05:46:29.859Z,3.45
2023-02-15T05:48:56.549Z,1.42
2023-02-15T05:51:24.335Z,1.88
2023-02-15T05:53:51.111Z,2.00
2023-02-15T05:56:17.865Z,1.05
2023-02-15T05:58:44.601Z,3.05
2023-02-15T06:01:16.451Z,2.35
2023-02-15T06:03:43.320Z,0.85
2023-02-15T06:06:10.550Z,0.45
2023-02-15T06:08:38.780Z,0.40
2023-02-15T06:11:06.524Z,0.82
2023-02-15T06:13:36.561Z,2.35
2023-02-15T06:16:05.579Z,0.40
2023-02-15T06:18:32.627Z,0.60
2023-02-15T06:21:03.336Z,0.60
2023-02-15T06:23:30.159Z,1.10
2023-02-15T06:25:56.925Z,0.32
2023-02-15T06:28:23.812Z,0.13
2023-02-15T06:30:50.593Z,0.52
2023-02-15T06:33:17.398Z,5.03
2023-02-15T06:35:44.290Z,0.55
2023-02-15T06:38:11.135Z,0.20
2023-02-15T06:40:37.936Z,0.28
2023-02-15T06:43:05.137Z,0.35
2023-02-15T06:45:32.898Z,0.47
2023-02-15T06:47:59.641Z,0.68
2023-02-15T06:50:26.394Z,0.98
2023-02-15T06:52:59.840Z,1.02
2023-02-15T06:55:26.870Z,0.40
2023-02-15T06:57:54.712Z,1.25
2023-02-15T07:00:23.238Z,1.70
2023-02-15T07:02:57.283Z,1.55
2023-02-15T07:05:24.689Z,0.38
2023-02-15T07:07:51.707Z,1.30
2023-02-15T07:10:18.482Z,1.17
2023-02-15T07:12:48.282Z,0.35
2023-02-15T07:15:17.655Z,1.13
2023-02-15T07:17:45.205Z,0.17
2023-02-15T07:20:15.875Z,0.63
2023-02-15T07:22:43.284Z,0.85
2023-02-15T07:25:11.609Z,0.55
2023-02-15T07:27:38.971Z,0.22
2023-02-15T07:30:09.265Z,1.48
2023-02-15T07:32:36.353Z,0.22
2023-02-15T07:35:03.579Z,0.57
2023-02-15T07:37:30.381Z,1.02
2023-02-15T07:39:57.130Z,0.30
2023-02-15T07:42:23.954Z,0.40
2023-02-15T07:44:50.888Z,1.67
2023-02-15T07:47:17.816Z,0.32
2023-02-15T07:49:47.598Z,1.35
2023-02-15T07:52:14.440Z,0.30
2023-02-15T07:54:41.417Z,2.95
2023-02-15T07:57:08.118Z,0.60
2023-02-15T07:59:34.835Z,1.80
2023-02-15T08:02:01.599Z,0.65
2023-02-15T08:04:28.319Z,1.48
2023-02-15T08:06:55.905Z,2.08
2023-02-15T08:09:23.758Z,0.38
2023-02-15T08:11:50.869Z,1.08
2023-02-15T08:14:20.017Z,0.30
2023-02-15T08:16:56.073Z,0.85
2023-02-15T08:19:36.719Z,1.70
2023-02-15T08:22:07.330Z,0.80
2023-02-15T08:24:39.861Z,0.88
2023-02-15T08:27:12.197Z,1.08
2023-02-15T08:29:40.471Z,0.60
2023-02-15T08:32:13.194Z,3.33
2023-02-15T08:34:42.524Z,3.65
2023-02-15T08:37:10.457Z,6.10
2023-02-15T08:39:37.878Z,0.30
2023-02-15T08:42:04.840Z,2.33
2023-02-15T08:44:31.757Z,0.55
2023-02-15T08:47:03.840Z,3.40
2023-02-15T08:49:32.188Z,2.38
2023-02-15T08:51:58.984Z,1.80
2023-02-15T08:54:25.739Z,0.60
2023-02-15T08:56:52.499Z,3.13
2023-02-15T08:59:22.091Z,1.73
2023-02-15T09:01:51.159Z,4.00
2023-02-15T09:04:18.713Z,2.63
2023-02-15T09:06:49.244Z,1.55
2023-02-15T09:09:17.920Z,2.65
2023-02-15T09:11:46.991Z,3.17
2023-02-15T09:14:16.998Z,2.92
2023-02-15T09:16:47.525Z,1.65
2023-02-15T09:19:14.378Z,4.38
2023-02-15T09:21:41.568Z,1.67
2023-02-15T09:24:12.508Z,2.10
2023-02-15T09:26:42.262Z,2.83
2023-02-15T09:29:10.333Z,0.85
2023-02-15T09:31:46.126Z,0.25
2023-02-15T09:34:14.855Z,1.52
2023-02-15T09:36:42.256Z,0.70
2023-02-15T09:39:11.706Z,0.60
2023-02-15T09:41:38.391Z,1.23
2023-02-15T09:44:29.535Z,1.38
2023-02-15T09:47:11.227Z,2.25
2023-02-15T09:49:59.346Z,1.15
2023-02-15T09:52:43.473Z,4.13
2023-02-15T09:55:13.508Z,2.40
2023-02-15T09:58:10.807Z,1.13
2023-02-15T10:00:46.038Z,1.10
2023-02-15T10:03:50.925Z,0.47
2023-02-15T10:06:25.625Z,1.23
2023-02-15T10:09:23.275Z,2.13
2023-02-15T10:11:52.656Z,3.42
2023-02-15T10:14:38.853Z,1.08
2023-02-15T10:17:08.423Z,1.48
2023-02-15T10:19:35.054Z,1.52
2023-02-15T10:22:14.306Z,2.28
2023-02-15T10:24:48.900Z,0.73
2023-02-15T10:27:21.419Z,1.00
2023-02-15T10:30:02.225Z,1.30
2023-02-15T10:32:36.102Z,1.02
2023-02-15T10:35:21.296Z,2.55
2023-02-15T10:38:09.961Z,2.28
2023-02-15T10:41:12.041Z,1.00
2023-02-15T10:43:53.504Z,1.83
2023-02-15T10:46:50.347Z,4.43
2023-02-15T10:49:44.517Z,2.20
2023-02-15T10:52:37.240Z,2.65
2023-02-15T10:58:13.244Z,4.28
2023-02-15T11:01:10.031Z,2.15
2023-02-15T11:03:47.903Z,6.10
2023-02-15T11:06:21.467Z,2.08
2023-02-15T11:08:52.691Z,4.90
2023-02-15T11:13:59.685Z,5.07
2023-02-15T11:16:38.216Z,5.47
2023-02-15T11:19:15.321Z,4.93
2023-02-15T11:21:48.799Z,3.53
2023-02-15T11:24:21.121Z,5.40
2023-02-15T11:29:37.287Z,3.88
2023-02-15T11:32:24.974Z,5.20
2023-02-15T11:34:54.685Z,3.20
2023-02-15T11:37:29.862Z,4.50
2023-02-15T11:39:57.840Z,3.10
2023-02-15T11:42:26.671Z,4.47
2023-02-15T11:45:00.393Z,6.90
2023-02-15T11:47:27.206Z,8.45
2023-02-15T11:49:54.069Z,4.18
2023-02-15T11:52:20.968Z,3.65
2023-02-15T11:54:53.076Z,3.97
2023-02-15T11:57:39.031Z,1.63
2023-02-15T12:00:14.126Z,4.28
2023-02-15T12:02:45.768Z,10.30
2023-02-15T12:05:18.367Z,7.43
2023-02-15T12:07:50.533Z,7.63
2023-02-15T12:13:10.879Z,3.72
2023-02-15T12:15:38.780Z,1.85
2023-02-15T12:18:06.934Z,8.07
2023-02-15T12:20:35.396Z,1.23
2023-02-15T12:23:05.401Z,3.90
2023-02-15T12:25:55.437Z,8.23
2023-02-15T12:28:39.695Z,8.02
2023-02-15T12:31:25.383Z,3.35
2023-02-15T12:33:56.244Z,8.70
2023-02-15T12:36:30.972Z,4.40
2023-02-15T12:39:04.529Z,5.57
2023-02-15T12:41:31.399Z,6.25
2023-02-15T12:44:19.561Z,4.57
2023-02-15T12:47:01.544Z,7.10
2023-02-15T12:49:31.521Z,3.58
2023-02-15T12:52:01.592Z,2.83
2023-02-15T12:54:31.280Z,3.58
2023-02-15T12:56:59.785Z,5.93
2023-02-15T12:59:26.898Z,5.43
2023-02-15T13:01:57.225Z,9.02
2023-02-15T13:04:28.429Z,10.40
2023-02-15T13:09:32.386Z,5.05
2023-02-15T13:12:18.065Z,5.93
2023-02-15T13:14:47.892Z,6.45
2023-02-15T13:17:17.133Z,10.88
2023-02-15T13:19:55.555Z,5.80
2023-02-15T13:22:34.616Z,5.55
2023-02-15T13:25:11.531Z,5.72
2023-02-15T13:27:44.391Z,5.78
2023-02-15T13:30:28.091Z,14.27
2023-02-15T13:33:01.449Z,11.10
2023-02-15T13:35:37.972Z,0.90
2023-02-15T13:38:14.907Z,4.07
2023-02-15T13:40:57.133Z,7.65
2023-02-15T13:43:49.204Z,3.90
2023-02-15T13:46:24.862Z,4.70
2023-02-15T13:49:06.915Z,2.85
2023-02-15T13:51:36.314Z,5.50
2023-02-15T13:54:32.654Z,11.20
2023-02-15T13:57:38.281Z,9.27
2023-02-15T14:00:26.523Z,1.17
2023-02-15T14:03:18.495Z,8.10
2023-02-15T14:05:55.344Z,8.82
2023-02-15T14:09:01.753Z,3.88
2023-02-15T14:12:00.982Z,9.75
2023-02-15T14:14:48.862Z,6.63
2023-02-15T14:17:37.110Z,1.85
2023-02-15T14:20:29.317Z,5.53
2023-02-15T14:23:17.710Z,5.80
2023-02-15T14:25:52.267Z,5.40
2023-02-15T14:28:38.875Z,4.13
2023-02-15T14:31:08.419Z,3.97
2023-02-15T14:33:41.069Z,4.07
2023-02-15T14:36:12.410Z,6.20
2023-02-15T14:39:45.970Z,4.50
2023-02-15T14:42:33.905Z,5.68
2023-02-15T14:45:15.008Z,7.85
2023-02-15T14:48:00.666Z,9.20
2023-02-15T14:50:38.562Z,0.93
2023-02-15T14:53:23.510Z,6.53
2023-02-15T14:56:11.854Z,9.60
2023-02-15T14:58:53.281Z,5.28
2023-02-15T15:01:30.632Z,5.22
2023-02-15T15:04:09.834Z,13.88
2023-02-15T15:06:40.575Z,2.50
2023-02-15T15:09:22.864Z,4.20
2023-02-15T15:14:32.889Z,5.63
2023-02-15T15:17:05.714Z,8.48
2023-02-15T15:19:51.764Z,5.57
2023-02-15T15:22:27.334Z,6.55
2023-02-15T15:25:18.124Z,9.52
2023-02-15T15:27:51.865Z,8.55
2023-02-15T15:30:18.662Z,9.07
2023-02-15T15:33:00.619Z,4.00
2023-02-15T15:35:45.806Z,6.03
2023-02-15T15:38:40.208Z,8.35
2023-02-15T15:41:19.825Z,6.22
2023-02-15T15:44:05.124Z,3.35
2023-02-15T15:46:46.351Z,6.13
2023-02-15T15:49:18.914Z,4.15
2023-02-15T15:51:47.296Z,10.52
2023-02-15T15:54:18.577Z,8.18
2023-02-15T15:56:59.370Z,6.53
2023-02-15T15:59:32.432Z,67.32
2023-02-15T16:02:14.143Z,6.80
2023-02-15T16:04:41.095Z,7.05
2023-02-15T16:07:17.060Z,4.60
2023-02-15T16:10:06.265Z,4.07
2023-02-15T16:12:37.073Z,6.85
2023-02-15T16:15:16.965Z,5.25
2023-02-15T16:17:48.668Z,4.30
2023-02-15T16:20:19.880Z,8.98
2023-02-15T16:23:04.871Z,2.00
2023-02-15T16:25:37.590Z,8.20
2023-02-15T16:28:12.333Z,8.15
2023-02-15T16:30:40.857Z,4.45
2023-02-15T16:33:18.348Z,6.95
2023-02-15T16:35:57.769Z,4.15
2023-02-15T16:38:43.198Z,6.70
2023-02-15T16:41:16.377Z,5.72
2023-02-15T16:43:46.637Z,7.20
2023-02-15T16:46:21.655Z,4.93
2023-02-15T16:48:52.947Z,9.23
2023-02-15T16:51:23.568Z,8.23
2023-02-15T16:53:50.879Z,5.50
2023-02-15T16:56:24.673Z,5.80
2023-02-15T16:58:54.667Z,8.15
2023-02-15T17:01:25.975Z,4.63
2023-02-15T17:04:14.021Z,6.50
2023-02-15T17:06:40.883Z,11.18
2023-02-15T17:09:19.467Z,5.78
2023-02-15T17:11:46.319Z,6.72
2023-02-15T17:14:15.608Z,15.35
2023-02-15T17:16:50.118Z,6.72
2023-02-15T17:19:21.243Z,14.85
2023-02-15T17:21:57.042Z,4.03
2023-02-15T17:24:33.030Z,10.07
2023-02-15T17:27:05.105Z,7.35
2023-02-15T17:29:45.569Z,12.50
2023-02-15T17:32:23.265Z,7.40
2023-02-15T17:35:09.581Z,5.97
2023-02-15T17:37:39.195Z,14.05
2023-02-15T17:40:25.803Z,8.75
2023-02-15T17:42:53.292Z,9.45
2023-02-15T17:45:21.298Z,5.50
2023-02-15T17:47:49.900Z,5.07
2023-02-15T17:50:25.670Z,6.50
2023-02-15T17:52:54.004Z,5.28
2023-02-15T17:55:39.254Z,7.95
2023-02-15T17:58:15.675Z,11.00
2023-02-15T18:01:07.967Z,10.93
2023-02-15T18:04:09.521Z,9.63
2023-02-15T18:06:58.188Z,7.07
2023-02-15T18:09:44.277Z,7.25
2023-02-15T18:12:19.464Z,10.27
2023-02-15T18:14:46.211Z,7.45
2023-02-15T18:17:17.238Z,7.50
2023-02-15T18:19:46.874Z,5.15
2023-02-15T18:22:16.917Z,12.57
2023-02-15T18:24:44.115Z,10.90
2023-02-15T18:27:13.472Z,6.53
2023-02-15T18:29:40.869Z,8.35
2023-02-15T18:32:10.965Z,10.27
2023-02-15T18:34:40.221Z,7.82
2023-02-15T18:37:15.672Z,10.82
2023-02-15T18:39:49.554Z,13.82
2023-02-15T18:42:27.532Z,7.28
2023-02-15T18:44:57.427Z,10.63
2023-02-15T18:47:24.422Z,6.18
2023-02-15T18:49:51.271Z,11.52
2023-02-15T18:52:26.252Z,18.65
2023-02-15T18:54:59.903Z,9.27
2023-02-15T18:57:28.377Z,8.27
2023-02-15T18:59:55.307Z,10.75
2023-02-15T19:02:22.115Z,7.60
2023-02-15T19:04:48.819Z,10.98
2023-02-15T19:07:22.034Z,10.70
2023-02-15T19:09:52.702Z,12.70
2023-02-15T19:12:22.310Z,6.45
2023-02-15T19:14:51.339Z,9.17
2023-02-15T19:17:21.144Z,12.27
2023-02-15T19:19:48.403Z,10.68
2023-02-15T19:22:17.134Z,12.15
2023-02-15T19:24:46.081Z,10.77
2023-02-15T19:27:24.864Z,7.25
2023-02-15T19:29:52.872Z,11.05
2023-02-15T19:32:19.724Z,11.55
2023-02-15T19:34:46.795Z,10.25
2023-02-15T19:37:34.457Z,8.40
2023-02-15T19:40:03.998Z,8.30
2023-02-15T19:42:32.511Z,9.27
2023-02-15T19:44:59.233Z,5.63
2023-02-15T19:47:28.208Z,10.10
2023-02-15T19:50:00.852Z,8.05
2023-02-15T19:52:27.712Z,11.98
2023-02-15T19:54:56.550Z,10.88
2023-02-15T19:57:23.794Z,14.07
2023-02-15T19:59:50.531Z,10.38
2023-02-15T20:02:20.287Z,8.32
2023-02-15T20:04:47.115Z,6.47
2023-02-15T20:07:25.421Z,7.50
2023-02-15T20:09:52.712Z,11.63
2023-02-15T20:12:27.008Z,6.55
2023-02-15T20:14:53.909Z,8.82
2023-02-15T20:17:22.436Z,9.70
2023-02-15T20:19:49.193Z,8.85
2023-02-15T20:22:27.363Z,7.97
2023-02-15T20:24:56.400Z,6.65
2023-02-15T20:27:24.162Z,12.40
2023-02-15T20:29:55.884Z,3.75
2023-02-15T20:32:23.947Z,8.10
2023-02-15T20:34:51.380Z,10.32
2023-02-15T20:37:28.960Z,5.18
2023-02-15T20:39:56.073Z,6.95
2023-02-15T20:42:22.931Z,2.97
2023-02-15T20:44:50.858Z,5.45
2023-02-15T20:47:18.532Z,6.40
2023-02-15T20:49:45.503Z,8.05
2023-02-15T20:52:20.488Z,6.93
2023-02-15T20:54:49.642Z,19.50
2023-02-15T20:57:16.949Z,5.93
2023-02-15T20:59:43.909Z,10.77
2023-02-15T21:02:23.982Z,4.38
2023-02-15T21:04:51.231Z,5.13
2023-02-15T21:07:20.593Z,5.78
2023-02-15T21:09:51.063Z,4.35
2023-02-15T21:12:22.966Z,7.80
2023-02-15T21:14:52.107Z,5.35
2023-02-15T21:17:20.430Z,5.00
2023-02-15T21:19:47.280Z,6.47
2023-02-15T21:22:15.895Z,4.65
2023-02-15T21:24:50.972Z,4.75
2023-02-15T21:27:17.983Z,5.55
2023-02-15T21:29:45.343Z,11.75
2023-02-15T21:32:12.256Z,3.30
2023-02-15T21:34:41.209Z,3.33
2023-02-15T21:37:28.527Z,5.40
2023-02-15T21:39:56.688Z,2.63
2023-02-15T21:42:42.014Z,9.48
2023-02-15T21:45:38.363Z,5.78
2023-02-15T21:48:05.318Z,10.80
2023-02-15T21:50:51.150Z,5.90
2023-02-15T21:53:27.935Z,16.73
2023-02-15T21:55:57.705Z,20.15
2023-02-15T21:58:27.248Z,18.20
2023-02-15T22:00:55.683Z,8.43
2023-02-15T22:03:30.021Z,13.23
2023-02-15T22:05:57.308Z,13.73
2023-02-15T22:08:24.219Z,13.77
2023-02-15T22:10:51.554Z,10.32
2023-02-15T22:13:30.089Z,6.38
2023-02-15T22:15:57.497Z,3.58
2023-02-15T22:18:27.263Z,3.35
2023-02-15T22:20:58.181Z,2.70
2023-02-15T22:23:24.889Z,2.25
2023-02-15T22:25:55.219Z,3.03
2023-02-15T22:28:28.128Z,6.07
2023-02-15T22:30:54.850Z,4.78
2023-02-15T22:33:32.734Z,4.50
2023-02-15T22:35:59.911Z,3.30
2023-02-15T22:38:27.010Z,3.40
2023-02-15T22:40:56.635Z,6.68
2023-02-15T22:43:53.125Z,9.45
2023-02-15T22:46:26.169Z,4.55
2023-02-15T22:48:53.173Z,4.03
2023-02-15T22:51:23.591Z,3.85
2023-02-15T22:53:52.297Z,3.95
2023-02-15T22:56:26.792Z,4.97
2023-02-15T22:59:00.737Z,4.63
2023-02-15T23:01:31.284Z,3.33
2023-02-15T23:03:58.136Z,6.53
2023-02-15T23:06:25.141Z,3.40
2023-02-15T23:08:52.152Z,5.00
2023-02-15T23:11:19.066Z,2.97
2023-02-15T23:13:48.168Z,1.42
2023-02-15T23:16:17.912Z,3.55
2023-02-15T23:18:46.798Z,2.72
2023-02-15T23:21:16.456Z,2.80
2023-02-15T23:23:45.278Z,3.28
2023-02-15T23:26:19.801Z,6.53
2023-02-15T23:28:47.167Z,5.88
2023-02-15T23:31:42.430Z,8.15
2023-02-15T23:34:35.467Z,3.30
2023-02-15T23:37:02.240Z,14.63
2023-02-15T23:39:47.504Z,6.82
2023-02-15T23:42:18.129Z,3.08
2023-02-15T23:44:46.706Z,10.45
2023-02-15T23:47:44.397Z,1.55
2023-02-15T23:50:28.739Z,3.33
2023-02-15T23:52:58.183Z,2.25
2023-02-15T23:55:35.289Z,2.80
2023-02-15T23:58:07.122Z,1.30
